sensor_id;sensor_type;location;lat;lon;timestamp;temperature;humidity
13174;DHT22;6652;48.802;9.190;2023-06-10T05:59:25;31.30;71.80
13174;DHT22;6652;48.802;9.190;2023-06-10T06:01:51;31.50;70.50
13174;DHT22;6652;48.802;9.190;2023-06-10T06:04:18;31.90;68.60
13174;DHT22;6652;48.802;9.190;2023-06-10T06:06:45;32.00;67.30
13174;DHT22;6652;48.802;9.190;2023-06-10T06:09:12;32.20;68.60
13174;DHT22;6652;48.802;9.190;2023-06-10T06:11:39;32.50;66.70
13174;DHT22;6652;48.802;9.190;2023-06-10T06:14:06;32.80;65.30
13174;DHT22;6652;48.802;9.190;2023-06-10T06:16:34;32.90;63.50
13174;DHT22;6652;48.802;9.190;2023-06-10T06:19:00;32.80;63.40
13174;DHT22;6652;48.802;9.190;2023-06-10T06:21:27;33.00;63.90
13174;DHT22;6652;48.802;9.190;2023-06-10T06:23:54;33.10;62.80
13174;DHT22;6652;48.802;9.190;2023-06-10T06:26:21;33.30;61.80
13174;DHT22;6652;48.802;9.190;2023-06-10T06:28:48;33.30;61.40
13174;DHT22;6652;48.802;9.190;2023-06-10T06:31:14;33.30;60.00
13174;DHT22;6652;48.802;9.190;2023-06-10T06:33:42;33.00;61.70
13174;DHT22;6652;48.802;9.190;2023-06-10T06:36:09;33.00;60.60
13174;DHT22;6652;48.802;9.190;2023-06-10T06:38:36;33.00;60.30
13174;DHT22;6652;48.802;9.190;2023-06-10T06:41:03;33.20;61.30
13174;DHT22;6652;48.802;9.190;2023-06-10T06:43:32;33.60;61.80
13174;DHT22;6652;48.802;9.190;2023-06-10T06:45:58;34.10;59.20
13174;DHT22;6652;48.802;9.190;2023-06-10T06:48:25;34.30;57.50
13174;DHT22;6652;48.802;9.190;2023-06-10T06:50:53;34.20;59.00
13174;DHT22;6652;48.802;9.190;2023-06-10T06:53:21;34.20;57.40
13174;DHT22;6652;48.802;9.190;2023-06-10T06:55:48;34.10;57.00
13174;DHT22;6652;48.802;9.190;2023-06-10T06:58:15;34.40;57.30
13174;DHT22;6652;48.802;9.190;2023-06-10T07:00:42;34.40;56.40
13174;DHT22;6652;48.802;9.190;2023-06-10T07:03:09;34.30;56.50
13174;DHT22;6652;48.802;9.190;2023-06-10T07:05:37;34.70;56.70
13174;DHT22;6652;48.802;9.190;2023-06-10T07:08:06;35.20;56.80
13174;DHT22;6652;48.802;9.190;2023-06-10T07:10:34;35.70;55.60
13174;DHT22;6652;48.802;9.190;2023-06-10T07:13:00;35.90;55.10
13174;DHT22;6652;48.802;9.190;2023-06-10T07:15:28;36.00;53.10
13174;DHT22;6652;48.802;9.190;2023-06-10T07:17:54;35.90;53.00
13174;DHT22;6652;48.802;9.190;2023-06-10T07:20:22;35.90;53.50
13174;DHT22;6652;48.802;9.190;2023-06-10T07:22:48;36.40;54.30
13174;DHT22;6652;48.802;9.190;2023-06-10T07:25:16;36.70;53.80
13174;DHT22;6652;48.802;9.190;2023-06-10T07:27:44;37.10;51.90
13174;DHT22;6652;48.802;9.190;2023-06-10T07:30:11;37.40;50.70
13174;DHT22;6652;48.802;9.190;2023-06-10T07:32:38;37.10;51.00
13174;DHT22;6652;48.802;9.190;2023-06-10T07:35:09;36.60;50.70
13174;DHT22;6652;48.802;9.190;2023-06-10T07:37:36;36.40;51.10
13174;DHT22;6652;48.802;9.190;2023-06-10T07:40:03;36.10;51.30
13174;DHT22;6652;48.802;9.190;2023-06-10T07:42:34;36.20;51.90
13174;DHT22;6652;48.802;9.190;2023-06-10T07:45:01;36.70;52.30
13174;DHT22;6652;48.802;9.190;2023-06-10T07:47:29;36.90;50.70
13174;DHT22;6652;48.802;9.190;2023-06-10T07:49:56;36.50;51.90
13174;DHT22;6652;48.802;9.190;2023-06-10T07:52:23;36.20;51.20
13174;DHT22;6652;48.802;9.190;2023-06-10T07:54:49;35.80;51.70
13174;DHT22;6652;48.802;9.190;2023-06-10T07:57:19;35.40;52.50
13174;DHT22;6652;48.802;9.190;2023-06-10T07:59:47;34.80;52.10
13174;DHT22;6652;48.802;9.190;2023-06-10T08:02:16;34.50;52.70
13174;DHT22;6652;48.802;9.190;2023-06-10T08:04:43;34.70;53.40
13174;DHT22;6652;48.802;9.190;2023-06-10T08:07:10;34.90;53.30
13174;DHT22;6652;48.802;9.190;2023-06-10T08:09:37;35.30;53.20
13174;DHT22;6652;48.802;9.190;2023-06-10T08:12:06;35.60;52.50
13174;DHT22;6652;48.802;9.190;2023-06-10T08:14:33;35.70;51.90
13174;DHT22;6652;48.802;9.190;2023-06-10T08:17:01;36.10;51.90
13174;DHT22;6652;48.802;9.190;2023-06-10T08:19:30;35.80;51.50
13174;DHT22;6652;48.802;9.190;2023-06-10T08:21:57;34.90;53.00
13174;DHT22;6652;48.802;9.190;2023-06-10T08:24:24;35.40;54.30
13174;DHT22;6652;48.802;9.190;2023-06-10T08:26:50;36.20;52.80
13174;DHT22;6652;48.802;9.190;2023-06-10T08:29:17;36.70;51.40
13174;DHT22;6652;48.802;9.190;2023-06-10T08:31:44;36.50;50.90
13174;DHT22;6652;48.802;9.190;2023-06-10T08:34:12;36.30;52.20
13174;DHT22;6652;48.802;9.190;2023-06-10T08:36:39;36.40;51.90
13174;DHT22;6652;48.802;9.190;2023-06-10T08:39:06;36.50;50.90
13174;DHT22;6652;48.802;9.190;2023-06-10T08:41:35;36.40;51.10
13174;DHT22;6652;48.802;9.190;2023-06-10T08:44:07;35.70;51.80
13174;DHT22;6652;48.802;9.190;2023-06-10T08:46:34;35.60;52.80
13174;DHT22;6652;48.802;9.190;2023-06-10T08:49:03;35.90;51.60
13174;DHT22;6652;48.802;9.190;2023-06-10T08:51:35;35.80;52.00
13174;DHT22;6652;48.802;9.190;2023-06-10T08:54:05;36.00;52.20
13174;DHT22;6652;48.802;9.190;2023-06-10T08:56:39;36.00;52.00
13174;DHT22;6652;48.802;9.190;2023-06-10T08:59:06;35.70;51.30
13174;DHT22;6652;48.802;9.190;2023-06-10T09:01:33;35.70;50.80
13174;DHT22;6652;48.802;9.190;2023-06-10T09:04:01;35.10;52.30
13174;DHT22;6652;48.802;9.190;2023-06-10T09:06:29;35.20;52.50
13174;DHT22;6652;48.802;9.190;2023-06-10T09:09:00;35.60;52.00
13174;DHT22;6652;48.802;9.190;2023-06-10T09:11:27;36.10;51.50
13174;DHT22;6652;48.802;9.190;2023-06-10T09:13:53;36.60;50.40
13174;DHT22;6652;48.802;9.190;2023-06-10T09:16:20;37.20;50.00
13174;DHT22;6652;48.802;9.190;2023-06-10T09:18:47;37.20;48.90
13174;DHT22;6652;48.802;9.190;2023-06-10T09:21:20;36.70;48.80
13174;DHT22;6652;48.802;9.190;2023-06-10T09:23:47;36.70;49.80
13174;DHT22;6652;48.802;9.190;2023-06-10T09:26:16;36.70;49.80
13174;DHT22;6652;48.802;9.190;2023-06-10T09:28:44;36.30;49.90
13174;DHT22;6652;48.802;9.190;2023-06-10T09:31:11;36.00;49.80
13174;DHT22;6652;48.802;9.190;2023-06-10T09:33:39;36.10;50.70
13174;DHT22;6652;48.802;9.190;2023-06-10T09:36:06;36.30;49.80
13174;DHT22;6652;48.802;9.190;2023-06-10T09:38:34;36.10;49.40
13174;DHT22;6652;48.802;9.190;2023-06-10T09:41:03;36.30;50.40
13174;DHT22;6652;48.802;9.190;2023-06-10T09:43:40;35.80;49.90
13174;DHT22;6652;48.802;9.190;2023-06-10T09:46:14;35.40;51.00
13174;DHT22;6652;48.802;9.190;2023-06-10T09:48:42;35.60;51.50
13174;DHT22;6652;48.802;9.190;2023-06-10T09:51:10;35.90;50.60
13174;DHT22;6652;48.802;9.190;2023-06-10T09:53:37;34.70;50.50
13174;DHT22;6652;48.802;9.190;2023-06-10T09:56:04;33.40;52.80
13174;DHT22;6652;48.802;9.190;2023-06-10T09:58:35;33.30;54.40
13174;DHT22;6652;48.802;9.190;2023-06-10T10:01:06;33.20;54.30
13174;DHT22;6652;48.802;9.190;2023-06-10T10:03:33;33.80;54.40
13174;DHT22;6652;48.802;9.190;2023-06-10T10:06:00;34.60;52.90
13174;DHT22;6652;48.802;9.190;2023-06-10T10:08:27;35.20;52.50
13174;DHT22;6652;48.802;9.190;2023-06-10T10:10:56;34.90;52.20
13174;DHT22;6652;48.802;9.190;2023-06-10T10:13:25;35.20;51.60
13174;DHT22;6652;48.802;9.190;2023-06-10T10:15:52;34.90;51.60
13174;DHT22;6652;48.802;9.190;2023-06-10T10:18:22;33.60;51.60
13174;DHT22;6652;48.802;9.190;2023-06-10T10:20:54;32.70;53.60
13174;DHT22;6652;48.802;9.190;2023-06-10T10:23:26;32.70;54.80
13174;DHT22;6652;48.802;9.190;2023-06-10T10:25:57;33.20;54.40
13174;DHT22;6652;48.802;9.190;2023-06-10T10:28:32;32.70;55.00
13174;DHT22;6652;48.802;9.190;2023-06-10T10:31:08;32.30;55.20
13174;DHT22;6652;48.802;9.190;2023-06-10T10:33:42;32.30;56.00
13174;DHT22;6652;48.802;9.190;2023-06-10T10:36:12;31.80;56.00
13174;DHT22;6652;48.802;9.190;2023-06-10T10:38:41;31.10;58.10
13174;DHT22;6652;48.802;9.190;2023-06-10T10:41:08;30.80;58.10
13174;DHT22;6652;48.802;9.190;2023-06-10T10:43:36;30.60;59.20
13174;DHT22;6652;48.802;9.190;2023-06-10T10:46:08;30.30;59.00
13174;DHT22;6652;48.802;9.190;2023-06-10T10:48:40;30.20;59.20
13174;DHT22;6652;48.802;9.190;2023-06-10T10:51:07;30.10;59.90
13174;DHT22;6652;48.802;9.190;2023-06-10T10:53:36;30.50;60.20
13174;DHT22;6652;48.802;9.190;2023-06-10T10:56:05;30.20;60.50
13174;DHT22;6652;48.802;9.190;2023-06-10T10:58:32;29.80;60.00
13174;DHT22;6652;48.802;9.190;2023-06-10T11:00:59;29.70;59.90
13174;DHT22;6652;48.802;9.190;2023-06-10T11:03:28;30.00;60.50
13174;DHT22;6652;48.802;9.190;2023-06-10T11:05:58;30.10;60.40
13174;DHT22;6652;48.802;9.190;2023-06-10T11:08:46;30.00;60.20
13174;DHT22;6652;48.802;9.190;2023-06-10T11:11:20;29.80;60.50
13174;DHT22;6652;48.802;9.190;2023-06-10T11:14:07;29.70;60.10
13174;DHT22;6652;48.802;9.190;2023-06-10T11:16:40;29.40;60.50
13174;DHT22;6652;48.802;9.190;2023-06-10T11:19:07;29.30;61.60
13174;DHT22;6652;48.802;9.190;2023-06-10T11:24:28;29.60;60.50
13174;DHT22;6652;48.802;9.190;2023-06-10T11:27:14;29.60;61.20
13174;DHT22;6652;48.802;9.190;2023-06-10T11:29:55;30.00;60.60
13174;DHT22;6652;48.802;9.190;2023-06-10T11:32:22;30.20;59.90
13174;DHT22;6652;48.802;9.190;2023-06-10T11:34:52;30.50;59.80
13174;DHT22;6652;48.802;9.190;2023-06-10T11:37:21;30.80;58.60
13174;DHT22;6652;48.802;9.190;2023-06-10T11:39:52;30.80;58.10
13174;DHT22;6652;48.802;9.190;2023-06-10T11:42:19;30.50;58.40
13174;DHT22;6652;48.802;9.190;2023-06-10T11:44:50;30.30;59.40
13174;DHT22;6652;48.802;9.190;2023-06-10T11:47:17;30.20;59.00
13174;DHT22;6652;48.802;9.190;2023-06-10T11:49:44;30.10;59.00
13174;DHT22;6652;48.802;9.190;2023-06-10T11:52:11;30.00;59.40
13174;DHT22;6652;48.802;9.190;2023-06-10T11:54:39;29.90;60.30
13174;DHT22;6652;48.802;9.190;2023-06-10T12:04:50;29.50;59.10
13174;DHT22;6652;48.802;9.190;2023-06-10T12:07:17;29.60;59.70
13174;DHT22;6652;48.802;9.190;2023-06-10T12:09:46;29.90;61.30
13174;DHT22;6652;48.802;9.190;2023-06-10T12:12:13;30.40;59.10
13174;DHT22;6652;48.802;9.190;2023-06-10T12:14:56;30.50;58.30
13174;DHT22;6652;48.802;9.190;2023-06-10T12:17:35;30.50;58.60
13174;DHT22;6652;48.802;9.190;2023-06-10T12:20:05;30.60;57.40
13174;DHT22;6652;48.802;9.190;2023-06-10T12:22:36;30.60;57.90
13174;DHT22;6652;48.802;9.190;2023-06-10T12:25:06;30.60;58.00
13174;DHT22;6652;48.802;9.190;2023-06-10T12:27:35;31.00;56.80
13174;DHT22;6652;48.802;9.190;2023-06-10T12:30:04;31.00;56.70
13174;DHT22;6652;48.802;9.190;2023-06-10T12:32:36;30.50;56.40
13174;DHT22;6652;48.802;9.190;2023-06-10T12:35:04;30.20;56.50
13174;DHT22;6652;48.802;9.190;2023-06-10T12:37:32;29.90;57.00
13174;DHT22;6652;48.802;9.190;2023-06-10T12:40:00;29.80;57.80
13174;DHT22;6652;48.802;9.190;2023-06-10T12:42:29;29.60;57.80
13174;DHT22;6652;48.802;9.190;2023-06-10T12:44:57;29.70;58.50
13174;DHT22;6652;48.802;9.190;2023-06-10T12:47:30;30.00;58.80
13174;DHT22;6652;48.802;9.190;2023-06-10T12:49:58;30.30;58.60
13174;DHT22;6652;48.802;9.190;2023-06-10T12:52:25;30.10;57.00
13174;DHT22;6652;48.802;9.190;2023-06-10T12:54:52;30.30;57.20
13174;DHT22;6652;48.802;9.190;2023-06-10T12:57:19;30.30;56.90
13174;DHT22;6652;48.802;9.190;2023-06-10T12:59:48;30.30;57.20
13174;DHT22;6652;48.802;9.190;2023-06-10T13:02:18;30.30;57.40
13174;DHT22;6652;48.802;9.190;2023-06-10T13:04:45;30.00;57.70
13174;DHT22;6652;48.802;9.190;2023-06-10T13:07:12;29.80;58.00
13174;DHT22;6652;48.802;9.190;2023-06-10T13:09:39;29.70;58.30
13174;DHT22;6652;48.802;9.190;2023-06-10T13:12:07;29.50;58.70
13174;DHT22;6652;48.802;9.190;2023-06-10T13:14:35;29.20;58.80
13174;DHT22;6652;48.802;9.190;2023-06-10T13:17:04;29.20;59.30
13174;DHT22;6652;48.802;9.190;2023-06-10T13:19:32;29.60;58.70
13174;DHT22;6652;48.802;9.190;2023-06-10T13:21:59;29.70;58.30
13174;DHT22;6652;48.802;9.190;2023-06-10T13:24:26;30.00;58.30
13174;DHT22;6652;48.802;9.190;2023-06-10T13:26:53;30.00;57.70
13174;DHT22;6652;48.802;9.190;2023-06-10T13:29:20;30.10;57.20
13174;DHT22;6652;48.802;9.190;2023-06-10T13:31:47;30.20;56.90
13174;DHT22;6652;48.802;9.190;2023-06-10T13:34:15;30.50;56.70
13174;DHT22;6652;48.802;9.190;2023-06-10T13:36:42;30.80;56.20
13174;DHT22;6652;48.802;9.190;2023-06-10T13:39:09;30.60;55.30
13174;DHT22;6652;48.802;9.190;2023-06-10T13:41:36;30.40;56.30
13174;DHT22;6652;48.802;9.190;2023-06-10T13:44:03;29.90;56.40
13174;DHT22;6652;48.802;9.190;2023-06-10T13:46:30;29.60;57.40
13174;DHT22;6652;48.802;9.190;2023-06-10T13:48:57;29.50;57.30
13174;DHT22;6652;48.802;9.190;2023-06-10T13:51:25;29.30;58.10
13174;DHT22;6652;48.802;9.190;2023-06-10T13:53:52;29.20;58.30
13174;DHT22;6652;48.802;9.190;2023-06-10T13:56:19;29.00;58.50
13174;DHT22;6652;48.802;9.190;2023-06-10T13:58:46;28.80;58.80
13174;DHT22;6652;48.802;9.190;2023-06-10T14:01:12;28.70;59.00
13174;DHT22;6652;48.802;9.190;2023-06-10T14:03:39;28.80;59.80
13174;DHT22;6652;48.802;9.190;2023-06-10T14:06:06;29.10;59.10
13174;DHT22;6652;48.802;9.190;2023-06-10T14:08:35;29.40;58.60
13174;DHT22;6652;48.802;9.190;2023-06-10T14:11:02;29.90;58.40
13174;DHT22;6652;48.802;9.190;2023-06-10T14:13:29;29.90;57.60
13174;DHT22;6652;48.802;9.190;2023-06-10T14:15:56;30.00;57.80
13174;DHT22;6652;48.802;9.190;2023-06-10T14:18:23;30.10;57.20
13174;DHT22;6652;48.802;9.190;2023-06-10T14:20:50;30.10;57.20
13174;DHT22;6652;48.802;9.190;2023-06-10T14:23:17;30.30;57.80
13174;DHT22;6652;48.802;9.190;2023-06-10T14:25:45;30.20;56.40
13174;DHT22;6652;48.802;9.190;2023-06-10T14:28:12;30.20;55.90
13174;DHT22;6652;48.802;9.190;2023-06-10T14:30:39;30.00;56.70
13174;DHT22;6652;48.802;9.190;2023-06-10T14:33:05;29.70;56.80
13174;DHT22;6652;48.802;9.190;2023-06-10T14:35:32;29.50;57.10
13174;DHT22;6652;48.802;9.190;2023-06-10T14:37:59;29.70;57.40
13174;DHT22;6652;48.802;9.190;2023-06-10T14:40:26;29.70;58.00
13174;DHT22;6652;48.802;9.190;2023-06-10T14:42:56;29.80;58.00
13174;DHT22;6652;48.802;9.190;2023-06-10T14:45:23;29.70;58.00
13174;DHT22;6652;48.802;9.190;2023-06-10T14:47:50;29.70;58.40
13174;DHT22;6652;48.802;9.190;2023-06-10T14:50:17;29.80;58.20
13174;DHT22;6652;48.802;9.190;2023-06-10T14:52:44;29.70;58.20
13174;DHT22;6652;48.802;9.190;2023-06-10T14:55:14;29.60;58.50
13174;DHT22;6652;48.802;9.190;2023-06-10T14:57:41;29.40;57.80
13174;DHT22;6652;48.802;9.190;2023-06-10T15:00:11;29.40;58.10
13174;DHT22;6652;48.802;9.190;2023-06-10T15:02:40;29.30;58.50
13174;DHT22;6652;48.802;9.190;2023-06-10T15:05:08;29.40;59.00
13174;DHT22;6652;48.802;9.190;2023-06-10T15:07:34;29.40;59.50
13174;DHT22;6652;48.802;9.190;2023-06-10T15:10:01;29.10;59.30
13174;DHT22;6652;48.802;9.190;2023-06-10T15:12:28;28.80;60.20
13174;DHT22;6652;48.802;9.190;2023-06-10T15:14:55;28.50;60.60
13174;DHT22;6652;48.802;9.190;2023-06-10T15:17:24;28.40;61.30
13174;DHT22;6652;48.802;9.190;2023-06-10T15:19:51;28.40;60.90
13174;DHT22;6652;48.802;9.190;2023-06-10T15:22:21;28.40;59.80
13174;DHT22;6652;48.802;9.190;2023-06-10T15:24:48;28.20;59.70
13174;DHT22;6652;48.802;9.190;2023-06-10T15:27:15;28.30;60.30
13174;DHT22;6652;48.802;9.190;2023-06-10T15:29:42;28.50;59.70
13174;DHT22;6652;48.802;9.190;2023-06-10T15:32:08;28.70;59.70
13174;DHT22;6652;48.802;9.190;2023-06-10T15:34:37;28.70;58.80
13174;DHT22;6652;48.802;9.190;2023-06-10T15:37:04;28.90;58.80
13174;DHT22;6652;48.802;9.190;2023-06-10T15:39:31;28.80;58.60
13174;DHT22;6652;48.802;9.190;2023-06-10T15:41:58;28.80;59.20
13174;DHT22;6652;48.802;9.190;2023-06-10T15:44:25;29.00;58.70
13174;DHT22;6652;48.802;9.190;2023-06-10T15:46:52;29.00;58.80
13174;DHT22;6652;48.802;9.190;2023-06-10T15:49:19;29.20;58.80
13174;DHT22;6652;48.802;9.190;2023-06-10T15:51:47;29.00;58.60
13174;DHT22;6652;48.802;9.190;2023-06-10T15:54:14;29.10;59.00
13174;DHT22;6652;48.802;9.190;2023-06-10T15:56:41;29.10;58.90
13174;DHT22;6652;48.802;9.190;2023-06-10T15:59:08;29.00;59.80
13174;DHT22;6652;48.802;9.190;2023-06-10T16:01:36;28.90;59.30
13174;DHT22;6652;48.802;9.190;2023-06-10T16:04:03;28.90;59.90
13174;DHT22;6652;48.802;9.190;2023-06-10T16:06:30;28.90;59.50
13174;DHT22;6652;48.802;9.190;2023-06-10T16:08:58;28.90;59.40
13174;DHT22;6652;48.802;9.190;2023-06-10T16:11:25;28.90;58.80
13174;DHT22;6652;48.802;9.190;2023-06-10T16:13:52;29.00;58.40
13174;DHT22;6652;48.802;9.190;2023-06-10T16:16:19;29.00;59.10
13174;DHT22;6652;48.802;9.190;2023-06-10T16:18:47;28.90;59.40
13174;DHT22;6652;48.802;9.190;2023-06-10T16:21:14;28.90;59.80
13174;DHT22;6652;48.802;9.190;2023-06-10T16:23:41;29.00;59.70
13174;DHT22;6652;48.802;9.190;2023-06-10T16:26:09;28.70;60.20
13174;DHT22;6652;48.802;9.190;2023-06-10T16:28:36;28.80;60.70
13174;DHT22;6652;48.802;9.190;2023-06-10T16:31:03;28.80;60.70
13174;DHT22;6652;48.802;9.190;2023-06-10T16:33:30;29.00;59.60
13174;DHT22;6652;48.802;9.190;2023-06-10T16:35:57;28.90;59.10
13174;DHT22;6652;48.802;9.190;2023-06-10T16:38:25;28.80;59.00
13174;DHT22;6652;48.802;9.190;2023-06-10T16:40:51;28.80;59.10
13174;DHT22;6652;48.802;9.190;2023-06-10T16:43:20;28.80;59.20
13174;DHT22;6652;48.802;9.190;2023-06-10T16:45:48;28.70;59.40
13174;DHT22;6652;48.802;9.190;2023-06-10T16:48:15;28.60;59.70
13174;DHT22;6652;48.802;9.190;2023-06-10T16:50:42;28.60;59.70
13174;DHT22;6652;48.802;9.190;2023-06-10T16:53:09;28.60;59.80
13174;DHT22;6652;48.802;9.190;2023-06-10T16:55:35;28.50;60.70
13174;DHT22;6652;48.802;9.190;2023-06-10T16:58:08;28.50;61.00
13174;DHT22;6652;48.802;9.190;2023-06-10T17:00:37;28.50;61.10
13174;DHT22;6652;48.802;9.190;2023-06-10T17:03:04;28.60;61.70
13174;DHT22;6652;48.802;9.190;2023-06-10T17:05:30;28.70;60.30
13174;DHT22;6652;48.802;9.190;2023-06-10T17:07:57;28.80;59.60
13174;DHT22;6652;48.802;9.190;2023-06-10T17:10:27;28.80;59.50
13174;DHT22;6652;48.802;9.190;2023-06-10T17:12:54;28.90;59.60
13174;DHT22;6652;48.802;9.190;2023-06-10T17:15:21;28.80;59.90
13174;DHT22;6652;48.802;9.190;2023-06-10T17:17:49;29.00;59.70
13174;DHT22;6652;48.802;9.190;2023-06-10T17:20:16;28.90;59.40
13174;DHT22;6652;48.802;9.190;2023-06-10T17:22:43;29.10;59.60
13174;DHT22;6652;48.802;9.190;2023-06-10T17:25:10;28.70;59.90
13174;DHT22;6652;48.802;9.190;2023-06-10T17:27:37;29.20;60.70
13174;DHT22;6652;48.802;9.190;2023-06-10T17:30:05;28.70;60.50
13174;DHT22;6652;48.802;9.190;2023-06-10T17:32:32;28.70;60.50
13174;DHT22;6652;48.802;9.190;2023-06-10T17:35:00;28.70;61.10
13174;DHT22;6652;48.802;9.190;2023-06-10T17:37:27;28.60;60.90
13174;DHT22;6652;48.802;9.190;2023-06-10T17:39:54;28.50;60.40
13174;DHT22;6652;48.802;9.190;2023-06-10T17:42:21;28.40;60.80
13174;DHT22;6652;48.802;9.190;2023-06-10T17:44:48;28.30;61.10
13174;DHT22;6652;48.802;9.190;2023-06-10T17:47:15;28.30;61.80
13174;DHT22;6652;48.802;9.190;2023-06-10T17:49:42;28.20;62.50
13174;DHT22;6652;48.802;9.190;2023-06-10T17:52:10;28.30;62.50
13174;DHT22;6652;48.802;9.190;2023-06-10T17:54:37;27.80;62.80
13174;DHT22;6652;48.802;9.190;2023-06-10T17:57:04;27.60;63.20
13174;DHT22;6652;48.802;9.190;2023-06-10T17:59:31;27.50;63.70
13174;DHT22;6652;48.802;9.190;2023-06-10T18:01:58;27.40;64.60
13174;DHT22;6652;48.802;9.190;2023-06-10T18:04:25;27.00;64.70
13174;DHT22;6652;48.802;9.190;2023-06-10T18:06:52;27.70;65.80
13174;DHT22;6652;48.802;9.190;2023-06-10T18:09:20;27.00;65.90
13174;DHT22;6652;48.802;9.190;2023-06-10T18:11:47;27.00;66.50
13174;DHT22;6652;48.802;9.190;2023-06-10T18:14:14;27.10;66.90
13174;DHT22;6652;48.802;9.190;2023-06-10T18:16:41;26.30;66.80
13174;DHT22;6652;48.802;9.190;2023-06-10T18:19:08;26.60;67.60
13174;DHT22;6652;48.802;9.190;2023-06-10T18:21:35;26.60;67.70
13174;DHT22;6652;48.802;9.190;2023-06-10T18:24:03;26.50;67.70
13174;DHT22;6652;48.802;9.190;2023-06-10T18:26:31;26.50;67.60
13174;DHT22;6652;48.802;9.190;2023-06-10T18:28:58;26.30;67.50
13174;DHT22;6652;48.802;9.190;2023-06-10T18:31:25;26.30;67.60
13174;DHT22;6652;48.802;9.190;2023-06-10T18:33:52;26.30;67.70
13174;DHT22;6652;48.802;9.190;2023-06-10T18:36:18;26.20;67.90
13174;DHT22;6652;48.802;9.190;2023-06-10T18:38:45;26.00;67.90
13174;DHT22;6652;48.802;9.190;2023-06-10T18:41:12;26.10;68.10
13174;DHT22;6652;48.802;9.190;2023-06-10T18:43:40;26.00;68.40
13174;DHT22;6652;48.802;9.190;2023-06-10T18:46:07;26.00;68.50
13174;DHT22;6652;48.802;9.190;2023-06-10T18:48:34;26.00;68.70
13174;DHT22;6652;48.802;9.190;2023-06-10T18:51:01;25.90;68.80
13174;DHT22;6652;48.802;9.190;2023-06-10T18:53:28;25.90;69.00
13174;DHT22;6652;48.802;9.190;2023-06-10T18:55:55;25.80;69.30
13174;DHT22;6652;48.802;9.190;2023-06-10T18:58:26;26.20;70.00
13174;DHT22;6652;48.802;9.190;2023-06-10T19:00:55;25.60;70.00
13174;DHT22;6652;48.802;9.190;2023-06-10T19:03:22;25.60;70.20
13174;DHT22;6652;48.802;9.190;2023-06-10T19:05:48;25.30;70.30
13174;DHT22;6652;48.802;9.190;2023-06-10T19:08:16;26.60;71.80
13174;DHT22;6652;48.802;9.190;2023-06-10T19:10:43;25.40;71.00
13174;DHT22;6652;48.802;9.190;2023-06-10T19:13:10;26.30;71.90
13174;DHT22;6652;48.802;9.190;2023-06-10T19:15:36;25.10;71.40
13174;DHT22;6652;48.802;9.190;2023-06-10T19:18:04;25.40;72.10
13174;DHT22;6652;48.802;9.190;2023-06-10T19:20:31;25.30;72.20
13174;DHT22;6652;48.802;9.190;2023-06-10T19:22:58;25.20;72.50
13174;DHT22;6652;48.802;9.190;2023-06-10T19:25:25;25.10;72.60
13174;DHT22;6652;48.802;9.190;2023-06-10T19:27:52;25.10;73.20
13174;DHT22;6652;48.802;9.190;2023-06-10T19:30:19;25.00;73.40
13174;DHT22;6652;48.802;9.190;2023-06-10T19:32:45;25.30;73.90
13174;DHT22;6652;48.802;9.190;2023-06-10T19:35:13;24.90;73.80
13174;DHT22;6652;48.802;9.190;2023-06-10T19:37:40;24.90;74.00
13174;DHT22;6652;48.802;9.190;2023-06-10T19:40:08;25.00;74.40
13174;DHT22;6652;48.802;9.190;2023-06-10T19:42:35;24.70;74.70
13174;DHT22;6652;48.802;9.190;2023-06-10T19:45:03;24.70;75.20
13174;DHT22;6652;48.802;9.190;2023-06-10T19:47:31;24.60;75.50
13174;DHT22;6652;48.802;9.190;2023-06-10T19:49:57;24.60;75.90
13174;DHT22;6652;48.802;9.190;2023-06-10T19:52:26;24.50;76.10
13174;DHT22;6652;48.802;9.190;2023-06-10T19:54:53;24.50;76.20
13174;DHT22;6652;48.802;9.190;2023-06-10T19:57:20;24.50;76.60
13174;DHT22;6652;48.802;9.190;2023-06-10T19:59:47;24.90;77.20
13174;DHT22;6652;48.802;9.190;2023-06-10T20:02:14;24.30;77.00
13174;DHT22;6652;48.802;9.190;2023-06-10T20:04:41;24.20;77.30
13174;DHT22;6652;48.802;9.190;2023-06-10T20:07:07;24.30;77.90
13174;DHT22;6652;48.802;9.190;2023-06-10T20:09:36;24.10;77.80
13174;DHT22;6652;48.802;9.190;2023-06-10T20:12:03;24.00;78.10
13174;DHT22;6652;48.802;9.190;2023-06-10T20:14:30;24.00;78.40
13174;DHT22;6652;48.802;9.190;2023-06-10T20:16:57;24.00;78.80
13174;DHT22;6652;48.802;9.190;2023-06-10T20:19:24;24.00;79.10
13174;DHT22;6652;48.802;9.190;2023-06-10T20:21:51;23.90;79.30
13174;DHT22;6652;48.802;9.190;2023-06-10T20:24:17;23.80;79.70
13174;DHT22;6652;48.802;9.190;2023-06-10T20:26:46;23.80;80.20
13174;DHT22;6652;48.802;9.190;2023-06-10T20:29:12;23.70;80.60
13174;DHT22;6652;48.802;9.190;2023-06-10T20:31:39;23.70;81.00
13174;DHT22;6652;48.802;9.190;2023-06-10T20:34:08;23.60;81.00
13174;DHT22;6652;48.802;9.190;2023-06-10T20:36:34;23.60;81.40
13174;DHT22;6652;48.802;9.190;2023-06-10T20:39:01;23.60;81.60
13174;DHT22;6652;48.802;9.190;2023-06-10T20:41:29;23.90;82.30
13174;DHT22;6652;48.802;9.190;2023-06-10T20:43:57;23.60;82.40
13174;DHT22;6652;48.802;9.190;2023-06-10T20:46:24;23.60;82.60
13174;DHT22;6652;48.802;9.190;2023-06-10T20:48:51;23.50;82.80
13174;DHT22;6652;48.802;9.190;2023-06-10T20:51:18;23.60;84.00
13174;DHT22;6652;48.802;9.190;2023-06-10T20:53:44;23.50;83.30
13174;DHT22;6652;48.802;9.190;2023-06-10T20:56:11;23.40;83.40
13174;DHT22;6652;48.802;9.190;2023-06-10T20:58:38;23.40;83.70
13174;DHT22;6652;48.802;9.190;2023-06-10T21:01:07;23.50;84.10
13174;DHT22;6652;48.802;9.190;2023-06-10T21:03:34;23.30;84.20
13174;DHT22;6652;48.802;9.190;2023-06-10T21:06:01;23.30;84.60
13174;DHT22;6652;48.802;9.190;2023-06-10T21:08:28;23.20;84.80
13174;DHT22;6652;48.802;9.190;2023-06-10T21:10:54;23.20;84.90
13174;DHT22;6652;48.802;9.190;2023-06-10T21:13:21;23.20;85.20
13174;DHT22;6652;48.802;9.190;2023-06-10T21:15:48;23.20;85.30
13174;DHT22;6652;48.802;9.190;2023-06-10T21:18:16;23.20;85.50
13174;DHT22;6652;48.802;9.190;2023-06-10T21:20:43;23.10;85.70
13174;DHT22;6652;48.802;9.190;2023-06-10T21:23:11;23.20;85.90
13174;DHT22;6652;48.802;9.190;2023-06-10T21:25:38;23.50;86.80
13174;DHT22;6652;48.802;9.190;2023-06-10T21:28:04;23.10;86.50
13174;DHT22;6652;48.802;9.190;2023-06-10T21:30:31;22.90;86.90
13174;DHT22;6652;48.802;9.190;2023-06-10T21:32:58;22.80;87.30
13174;DHT22;6652;48.802;9.190;2023-06-10T21:35:26;22.80;88.30
13174;DHT22;6652;48.802;9.190;2023-06-10T21:37:53;22.70;87.70
13174;DHT22;6652;48.802;9.190;2023-06-10T21:40:20;22.70;87.90
13174;DHT22;6652;48.802;9.190;2023-06-10T21:42:47;22.70;88.50
13174;DHT22;6652;48.802;9.190;2023-06-10T21:45:14;22.60;88.80
13174;DHT22;6652;48.802;9.190;2023-06-10T21:47:41;22.60;89.20
13174;DHT22;6652;48.802;9.190;2023-06-10T21:50:08;22.60;90.10
13174;DHT22;6652;48.802;9.190;2023-06-10T21:52:36;22.50;89.80
13174;DHT22;6652;48.802;9.190;2023-06-10T21:55:04;22.50;89.80
13174;DHT22;6652;48.802;9.190;2023-06-10T21:57:31;22.50;90.00